createdAt,value
2018-04-29T15:32:45.685Z,974.32
2018-04-29T15:33:47.234Z,974.38
2018-04-29T15:35:40.794Z,974.28
2018-04-29T15:36:38.690Z,974.27
2018-04-29T15:38:34.537Z,974.27
2018-04-29T15:39:33.297Z,974.28
2018-04-29T15:41:26.934Z,974.27
2018-04-29T15:42:27.574Z,974.23
2018-04-29T15:44:20.732Z,974.21
2018-04-29T15:45:19.165Z,974.16
2018-04-29T15:47:19.325Z,974.21
2018-04-29T15:48:19.470Z,974.18
2018-04-29T15:50:13.201Z,974.13
2018-04-29T15:51:11.166Z,974.16
2018-04-29T15:53:12.799Z,974.12
2018-04-29T15:54:14.792Z,974.08
2018-04-29T15:56:09.316Z,974.02
2018-04-29T15:57:07.281Z,973.96
2018-04-29T15:59:03.840Z,973.93
2018-04-29T16:00:02.597Z,973.95
2018-04-29T16:01:56.927Z,973.89
2018-04-29T16:02:57.008Z,973.89
2018-04-29T16:04:50.359Z,973.91
2018-04-29T16:05:49.398Z,973.93
2018-04-29T16:07:43.623Z,973.92
2018-04-29T16:08:43.524Z,973.88
2018-04-29T16:10:36.851Z,973.87
2018-04-29T16:11:36.622Z,973.86
2018-04-29T16:13:31.537Z,973.88
2018-04-29T16:14:29.424Z,973.87
2018-04-29T16:15:31.187Z,973.89
2018-04-29T16:16:30.811Z,973.89
2018-04-29T16:17:31.208Z,973.88
2018-04-29T16:18:31.174Z,973.87
2018-04-29T16:19:31.082Z,973.89
2018-04-29T16:20:31.117Z,973.84
2018-04-29T16:21:30.961Z,973.85
2018-04-29T16:22:29.305Z,973.81
2018-04-29T16:23:28.965Z,973.79
2018-04-29T16:24:29.044Z,973.80
2018-04-29T16:25:28.766Z,973.78
2018-04-29T16:26:28.938Z,973.75
2018-04-29T16:27:28.751Z,973.74
2018-04-29T16:28:28.993Z,973.71
2018-04-29T16:29:29.170Z,973.73
2018-04-29T16:30:31.415Z,973.66
2018-04-29T16:31:28.614Z,973.61
2018-04-29T16:32:28.639Z,973.64
2018-04-29T16:33:28.562Z,973.65
2018-04-29T16:34:28.978Z,973.62
2018-04-29T16:35:28.578Z,973.61
2018-04-29T16:36:28.458Z,973.54
2018-04-29T16:37:28.626Z,973.56
2018-04-29T16:38:28.617Z,973.50
2018-04-29T16:39:28.474Z,973.50
2018-04-29T16:40:28.501Z,973.41
2018-04-29T16:41:28.358Z,973.49
2018-04-29T16:42:28.333Z,973.50
2018-04-29T16:43:32.017Z,973.48
2018-04-29T16:44:28.259Z,973.45
2018-04-29T16:45:28.425Z,973.45
2018-04-29T16:46:28.259Z,973.45
2018-04-29T16:47:28.178Z,973.45
2018-04-29T16:48:28.808Z,973.39
2018-04-29T16:49:28.982Z,973.33
2018-04-29T16:50:28.245Z,973.36
2018-04-29T16:51:28.188Z,973.30
2018-04-29T16:52:28.089Z,973.29
2018-04-29T16:53:28.062Z,973.30
2018-04-29T16:54:27.987Z,973.24
2018-04-29T16:55:28.138Z,973.18
2018-04-29T16:56:28.382Z,973.17
2018-04-29T16:57:28.030Z,973.16
2018-04-29T16:58:28.018Z,973.15
2018-04-29T16:59:27.983Z,973.13
2018-04-29T17:00:27.873Z,973.13
2018-04-29T17:01:27.799Z,973.12
2018-04-29T17:04:23.232Z,973.05
2018-04-29T17:05:22.945Z,973.04
2018-04-29T17:07:17.042Z,972.97
2018-04-29T17:08:16.029Z,972.95
2018-04-29T17:10:09.344Z,972.89
2018-04-29T17:11:09.479Z,972.87
2018-04-29T17:13:05.117Z,972.85
2018-04-29T17:15:59.035Z,972.74
2018-04-29T17:16:55.983Z,972.80
2018-04-29T17:18:51.021Z,972.83
2018-04-29T17:19:49.836Z,972.85
2018-04-29T17:21:43.558Z,972.83
2018-04-29T17:22:43.779Z,972.78
2018-04-29T17:24:36.921Z,972.82
2018-04-29T17:25:36.992Z,972.79
2018-04-29T17:27:30.035Z,972.77
2018-04-29T17:28:28.107Z,972.70
2018-04-29T17:30:23.158Z,972.74
2018-04-29T17:31:21.861Z,972.74
2018-04-29T17:32:22.924Z,972.69
2018-04-29T17:33:22.892Z,972.73
2018-04-29T17:34:23.102Z,972.73
2018-04-29T17:35:22.976Z,972.70
2018-04-29T17:36:22.957Z,972.67
2018-04-29T17:37:22.942Z,972.65
2018-04-29T17:38:21.062Z,972.67
2018-04-29T17:39:20.739Z,972.59
2018-04-29T17:40:20.641Z,972.62
2018-04-29T17:41:20.667Z,972.61
2018-04-29T17:42:20.614Z,972.57
2018-04-29T17:43:20.640Z,972.57
2018-04-29T17:44:20.559Z,972.55
2018-04-29T17:45:20.491Z,972.57
2018-04-29T17:46:20.470Z,972.60
2018-04-29T17:47:20.442Z,972.57
2018-04-29T17:48:20.490Z,972.62
2018-04-29T17:49:20.796Z,972.62
2018-04-29T17:50:20.348Z,972.62
2018-04-29T17:51:20.372Z,972.66
2018-04-29T17:52:20.347Z,972.67
2018-04-29T17:53:21.129Z,972.66
2018-04-29T17:54:20.316Z,972.62
2018-04-29T17:55:20.838Z,972.62
2018-04-29T17:56:20.287Z,972.58
2018-04-29T17:57:20.115Z,972.59
2018-04-29T17:58:20.274Z,972.57
2018-04-29T17:59:20.131Z,972.55
2018-04-29T18:00:20.092Z,972.55
2018-04-29T18:01:20.249Z,972.56
2018-04-29T18:02:20.794Z,972.52
2018-04-29T18:03:19.964Z,972.50
2018-04-29T18:04:20.047Z,972.50
2018-04-29T18:05:20.128Z,972.51
2018-04-29T18:06:20.382Z,972.50
2018-04-29T18:07:26.188Z,972.47
2018-04-29T18:08:19.907Z,972.50
2018-04-29T18:09:20.096Z,972.48
2018-04-29T18:10:20.004Z,972.54
2018-04-29T18:11:19.931Z,972.54
2018-04-29T18:12:19.834Z,972.56
2018-04-29T18:13:19.785Z,972.55
2018-04-29T18:14:19.895Z,972.54
2018-04-29T18:15:19.869Z,972.52
2018-04-29T18:16:19.778Z,972.51
2018-04-29T18:17:21.102Z,972.47
2018-04-29T18:18:19.848Z,972.44
2018-04-29T18:19:19.824Z,972.47
2018-04-29T18:20:19.531Z,972.50
2018-04-29T18:21:20.055Z,972.48
2018-04-29T18:22:19.612Z,972.51
2018-04-29T18:23:19.593Z,972.44
2018-04-29T18:24:19.630Z,972.43
2018-04-29T18:25:19.641Z,972.44
2018-04-29T18:26:20.624Z,972.44
2018-04-29T18:27:19.681Z,972.39
2018-04-29T18:28:19.854Z,972.37
2018-04-29T18:31:14.679Z,972.36
2018-04-29T18:32:14.393Z,972.39
2018-04-29T18:34:10.481Z,972.36
2018-04-29T18:37:05.976Z,972.29
2018-04-29T18:38:06.577Z,972.30
2018-04-29T18:39:06.628Z,972.30
2018-04-29T18:40:06.530Z,972.27
2018-04-29T18:41:07.050Z,972.27
2018-04-29T18:42:06.537Z,972.24
2018-04-29T18:43:06.380Z,972.20
2018-04-29T18:44:06.323Z,972.24
2018-04-29T18:45:23.110Z,972.22
2018-04-29T18:46:06.332Z,972.18
2018-04-29T18:47:06.426Z,972.23
2018-04-29T18:48:06.367Z,972.22
2018-04-29T18:49:06.372Z,972.22
2018-04-29T18:50:06.372Z,972.22
2018-04-29T18:51:07.084Z,972.22
2018-04-29T18:52:17.003Z,972.21
2018-04-29T18:53:06.159Z,972.18
2018-04-29T18:54:06.150Z,972.20
2018-04-29T18:55:05.995Z,972.19
2018-04-29T18:56:06.129Z,972.19
2018-04-29T18:57:05.950Z,972.20
2018-04-29T18:58:06.046Z,972.19
2018-04-29T18:59:06.168Z,972.15
2018-04-29T19:00:05.804Z,972.14
2018-04-29T19:01:04.620Z,972.15
2018-04-29T19:02:04.416Z,972.10
2018-04-29T19:03:04.005Z,972.13
2018-04-29T19:04:03.598Z,972.13
2018-04-29T19:05:03.593Z,972.11
2018-04-29T19:06:03.476Z,972.09
2018-04-29T19:07:03.816Z,972.12
2018-04-29T19:08:04.116Z,972.09
2018-04-29T19:09:03.578Z,972.05
2018-04-29T19:10:03.676Z,972.10
2018-04-29T19:11:03.558Z,972.04
2018-04-29T19:12:07.165Z,972.03
2018-04-29T19:13:03.506Z,971.99
2018-04-29T19:14:03.273Z,972.02
2018-04-29T19:15:07.102Z,971.99
2018-04-29T19:16:03.111Z,971.96
2018-04-29T19:17:08.301Z,972.02
2018-04-29T19:18:04.056Z,972.00
2018-04-29T19:19:03.510Z,972.01
2018-04-29T19:20:03.488Z,972.03
2018-04-29T19:21:03.187Z,971.99
2018-04-29T19:22:02.956Z,971.99
2018-04-29T19:23:03.109Z,972.00
2018-04-29T19:24:03.525Z,971.96
2018-04-29T19:25:03.157Z,971.98
2018-04-29T19:26:02.938Z,971.96
2018-04-29T19:27:02.965Z,971.91
2018-04-29T19:28:02.841Z,971.90
2018-04-29T19:29:03.213Z,971.88
2018-04-29T19:30:02.817Z,971.88
2018-04-29T19:31:02.781Z,971.88
2018-04-29T19:32:02.809Z,971.86
2018-04-29T19:33:02.573Z,971.85
2018-04-29T19:34:02.976Z,971.86
2018-04-29T19:35:02.826Z,971.82
2018-04-29T19:36:02.712Z,971.85
2018-04-29T19:37:03.145Z,971.83
2018-04-29T19:38:02.437Z,971.79
2018-04-29T19:39:02.534Z,971.75
2018-04-29T19:40:02.367Z,971.73
2018-04-29T19:41:02.580Z,971.77
2018-04-29T19:42:02.364Z,971.69
2018-04-29T19:43:02.264Z,971.69
2018-04-29T19:44:02.423Z,971.68
2018-04-29T19:45:03.561Z,971.68
2018-04-29T19:46:02.298Z,971.62
2018-04-29T19:47:02.943Z,971.61
2018-04-29T19:48:02.268Z,971.63
2018-04-29T19:49:04.737Z,971.60
2018-04-29T19:50:02.148Z,971.57
2018-04-29T19:51:02.027Z,971.59
2018-04-29T19:52:02.222Z,971.59
2018-04-29T19:53:02.214Z,971.55
2018-04-29T19:54:02.163Z,971.53
2018-04-29T19:55:02.722Z,971.54
2018-04-29T19:56:02.028Z,971.51
2018-04-29T19:57:01.927Z,971.48
2018-04-29T19:58:02.637Z,971.46
2018-04-29T19:59:01.763Z,971.44
2018-04-29T20:00:01.830Z,971.44
2018-04-29T20:01:03.569Z,971.40
2018-04-29T20:02:01.906Z,971.40
2018-04-29T20:03:01.949Z,971.39
2018-04-29T20:04:01.719Z,971.36
2018-04-29T20:05:02.324Z,971.35
2018-04-29T20:06:02.369Z,971.33
2018-04-29T20:07:02.990Z,971.30
2018-04-29T20:08:02.439Z,971.26
2018-04-29T20:09:01.523Z,971.26
2018-04-29T20:10:01.398Z,971.21
2018-04-29T20:11:02.131Z,971.20
2018-04-29T20:12:01.409Z,971.21
2018-04-29T20:13:01.316Z,971.21
2018-04-29T20:14:03.310Z,971.14
2018-04-29T20:15:01.423Z,971.12
2018-04-29T20:16:01.269Z,971.13
2018-04-29T20:17:01.647Z,971.12
2018-04-29T20:18:01.095Z,971.09
2018-04-29T20:19:01.125Z,971.09
2018-04-29T20:20:01.103Z,971.00
2018-04-29T20:21:01.004Z,971.01
2018-04-29T20:22:01.039Z,970.99
2018-04-29T20:23:02.038Z,971.00
2018-04-29T20:24:00.876Z,970.97
2018-04-29T20:25:00.823Z,970.92
2018-04-29T20:26:00.937Z,970.99
2018-04-29T20:27:01.650Z,970.96
2018-04-29T20:28:00.949Z,970.93
2018-04-29T20:29:00.774Z,970.97
2018-04-29T20:30:00.786Z,970.96
2018-04-29T20:31:00.949Z,970.89
2018-04-29T20:32:00.649Z,970.89
2018-04-29T20:33:00.620Z,970.89
2018-04-29T20:34:00.580Z,970.87
2018-04-29T20:35:00.761Z,970.89
2018-04-29T20:36:00.849Z,970.84
2018-04-29T20:37:00.513Z,970.82
2018-04-29T20:38:00.971Z,970.81
2018-04-29T20:39:00.790Z,970.82
2018-04-29T20:40:00.567Z,970.77
2018-04-29T20:41:00.525Z,970.76
2018-04-29T20:42:00.317Z,970.74
2018-04-29T20:43:00.399Z,970.73
2018-04-29T20:44:00.491Z,970.68
2018-04-29T20:45:00.672Z,970.68
2018-04-29T20:46:01.114Z,970.65
2018-04-29T20:47:00.643Z,970.62
2018-04-29T20:48:00.216Z,970.55
2018-04-29T20:49:00.333Z,970.58
2018-04-29T20:50:00.913Z,970.57
2018-04-29T20:51:15.411Z,970.54
2018-04-29T20:52:55.732Z,970.48
2018-04-29T20:53:55.719Z,970.48
2018-04-29T20:55:53.205Z,970.42
2018-04-29T20:56:52.733Z,970.40
2018-04-29T20:58:47.062Z,970.41
2018-04-29T20:59:47.094Z,970.44
2018-04-29T21:01:40.416Z,970.37
2018-04-29T21:02:40.383Z,970.37
2018-04-29T21:04:33.912Z,970.31
2018-04-29T21:05:33.922Z,970.30
2018-04-29T21:07:27.721Z,970.28
2018-04-29T21:08:27.109Z,970.27
2018-04-29T21:10:21.131Z,970.20
2018-04-29T21:11:21.251Z,970.16
2018-04-29T21:13:15.837Z,970.18
2018-04-29T21:14:15.699Z,970.16
2018-04-29T21:15:15.637Z,970.19
2018-04-29T21:16:15.683Z,970.11
2018-04-29T21:17:15.731Z,970.09
2018-04-29T21:18:15.474Z,970.09
2018-04-29T21:19:15.692Z,970.03
2018-04-29T21:20:15.686Z,970.01
2018-04-29T21:21:15.602Z,969.97
2018-04-29T21:22:14.935Z,969.98
2018-04-29T21:23:14.126Z,969.94
2018-04-29T21:25:08.589Z,969.91
2018-04-29T21:26:07.233Z,969.87
2018-04-29T21:28:02.981Z,969.84
2018-04-29T21:29:01.151Z,969.83
2018-04-29T21:30:56.789Z,969.79
2018-04-29T21:31:54.580Z,969.83
2018-04-29T21:33:51.101Z,969.78
2018-04-29T21:34:49.605Z,969.74
2018-04-29T21:36:44.830Z,969.70
2018-04-29T21:37:43.884Z,969.68
2018-04-29T21:38:44.411Z,969.65
2018-04-29T21:39:44.396Z,969.60
2018-04-29T21:40:44.471Z,969.60
2018-04-29T21:41:44.487Z,969.59
2018-04-29T21:42:44.317Z,969.54
2018-04-29T21:43:44.357Z,969.52
2018-04-29T21:44:44.292Z,969.54
2018-04-29T21:45:42.530Z,969.48
2018-04-29T21:46:42.688Z,969.47
2018-04-29T21:47:42.157Z,969.47
2018-04-29T21:48:42.195Z,969.50
2018-04-29T21:49:42.053Z,969.42
2018-04-29T21:50:42.257Z,969.42
2018-04-29T21:51:42.060Z,969.46
2018-04-29T21:52:42.265Z,969.42
2018-04-29T21:53:44.356Z,969.45
2018-04-29T21:54:42.696Z,969.44
2018-04-29T21:55:41.905Z,969.39
2018-04-29T21:56:41.946Z,969.33
2018-04-29T21:57:41.776Z,969.34
2018-04-29T21:58:41.834Z,969.30
2018-04-29T21:59:41.694Z,969.31
2018-04-29T22:00:42.003Z,969.30
2018-04-29T22:01:42.401Z,969.27
2018-04-29T22:02:41.825Z,969.25
2018-04-29T22:03:41.604Z,969.23
2018-04-29T22:04:41.762Z,969.24
2018-04-29T22:05:41.708Z,969.19
2018-04-29T22:06:41.751Z,969.25
2018-04-29T22:07:41.652Z,969.24
2018-04-29T22:08:44.612Z,969.26
2018-04-29T22:09:41.539Z,969.25
2018-04-29T22:10:41.398Z,969.19
2018-04-29T22:11:41.318Z,969.18
2018-04-29T22:12:41.277Z,969.18
2018-04-29T22:13:41.197Z,969.18
2018-04-29T22:14:41.341Z,969.12
2018-04-29T22:15:41.321Z,969.12
2018-04-29T22:16:42.404Z,969.12
2018-04-29T22:17:41.173Z,969.07
2018-04-29T22:18:41.028Z,969.08
2018-04-29T22:19:41.671Z,969.05
2018-04-29T22:20:41.078Z,969.03
2018-04-29T22:21:41.232Z,969.04
2018-04-29T22:22:41.083Z,968.98
2018-04-29T22:23:41.095Z,969.01
2018-04-29T22:24:40.870Z,969.01
2018-04-29T22:25:40.778Z,968.96
2018-04-29T22:26:41.623Z,968.97
2018-04-29T22:27:40.819Z,968.95
2018-04-29T22:28:40.931Z,968.95
2018-04-29T22:29:40.819Z,968.89
2018-04-29T22:30:40.874Z,968.85
2018-04-29T22:31:41.153Z,968.85
2018-04-29T22:32:40.994Z,968.85
2018-04-29T22:33:40.985Z,968.82
2018-04-29T22:34:40.843Z,968.78
2018-04-29T22:35:40.555Z,968.76
2018-04-29T22:36:40.393Z,968.73
2018-04-29T22:37:40.643Z,968.74
2018-04-29T22:38:40.454Z,968.76
2018-04-29T22:39:40.351Z,968.73
2018-04-29T22:40:40.311Z,968.74
2018-04-29T22:41:40.196Z,968.66
2018-04-29T22:42:40.176Z,968.67
2018-04-29T22:43:40.107Z,968.68
2018-04-29T22:44:40.166Z,968.62
2018-04-29T22:45:40.620Z,968.61
2018-04-29T22:46:40.165Z,968.60
2018-04-29T22:47:40.188Z,968.62
2018-04-29T22:48:40.100Z,968.63
2018-04-29T22:49:40.209Z,968.60
2018-04-29T22:50:40.192Z,968.64
2018-04-29T22:51:40.192Z,968.57
2018-04-29T22:52:40.087Z,968.54
2018-04-29T22:53:39.949Z,968.54
2018-04-29T22:54:39.936Z,968.52
2018-04-29T22:55:40.172Z,968.48
2018-04-29T22:56:39.941Z,968.50
2018-04-29T22:57:39.752Z,968.50
2018-04-29T22:58:39.900Z,968.46
2018-04-29T22:59:39.605Z,968.47
2018-04-29T23:00:39.678Z,968.45
2018-04-29T23:01:39.607Z,968.48
2018-04-29T23:02:39.620Z,968.48
2018-04-29T23:03:39.625Z,968.45
2018-04-29T23:04:39.470Z,968.46
2018-04-29T23:05:39.466Z,968.42
2018-04-29T23:06:39.385Z,968.39
2018-04-29T23:07:39.470Z,968.39
2018-04-29T23:08:39.460Z,968.37
2018-04-29T23:09:39.485Z,968.32
2018-04-29T23:10:39.352Z,968.36
2018-04-29T23:11:39.481Z,968.32
2018-04-29T23:12:39.427Z,968.27
2018-04-29T23:13:39.251Z,968.26
2018-04-29T23:14:39.077Z,968.24
2018-04-29T23:15:39.053Z,968.29
2018-04-29T23:16:39.127Z,968.24
2018-04-29T23:17:39.139Z,968.24
2018-04-29T23:18:39.331Z,968.28
2018-04-29T23:19:39.030Z,968.28
2018-04-29T23:20:38.947Z,968.25
2018-04-29T23:21:38.958Z,968.26
2018-04-29T23:22:38.780Z,968.26
2018-04-29T23:23:38.806Z,968.22
2018-04-29T23:24:38.749Z,968.19
2018-04-29T23:25:38.814Z,968.15
2018-04-29T23:26:38.730Z,968.17
2018-04-29T23:27:38.677Z,968.12
2018-04-29T23:28:38.593Z,968.16
2018-04-29T23:29:38.689Z,968.12
2018-04-29T23:30:38.754Z,968.11
2018-04-29T23:31:38.639Z,968.07
2018-04-29T23:32:38.568Z,968.03
2018-04-29T23:33:38.528Z,968.05
2018-04-29T23:34:38.642Z,968.00
2018-04-29T23:35:38.824Z,968.00
2018-04-29T23:36:38.489Z,967.92
2018-04-29T23:37:38.386Z,967.93
2018-04-29T23:38:38.379Z,967.90
2018-04-29T23:39:38.273Z,967.87
2018-04-29T23:40:38.233Z,967.86
2018-04-29T23:41:38.271Z,967.85
2018-04-29T23:42:38.155Z,967.83
2018-04-29T23:43:38.362Z,967.80
2018-04-29T23:44:38.556Z,967.80
2018-04-29T23:45:38.637Z,967.75
2018-04-29T23:46:38.951Z,967.74
2018-04-29T23:47:38.919Z,967.73
2018-04-29T23:48:39.273Z,967.70
2018-04-29T23:49:38.423Z,967.75
2018-04-29T23:50:40.166Z,967.71
2018-04-29T23:51:39.438Z,967.68
2018-04-29T23:52:40.098Z,967.68
2018-04-29T23:53:38.466Z,967.69
2018-04-29T23:54:39.547Z,967.64
2018-04-29T23:55:45.695Z,967.64
2018-04-29T23:56:39.798Z,967.68
2018-04-29T23:57:37.872Z,967.63
2018-04-29T23:58:38.044Z,967.59
2018-04-29T23:59:37.980Z,967.56
